メインページ
METAR-TAF:

METAR-TAF

空港 :

トリブバン国際空港

カトマンズ, ネパール

緯度: 27-42N, 経度: 085-22E, 海抜: 1337m

現時点の気象観測

当レポートは29分前の10:50(UTC)に作成
西/北西の風 9kt
気温 19°C
湿度 52%
気圧 1015 hPa
視程: 8000m
高度2000ftの雲はほとんどない

METAR: VNKT 141050Z 30009KT 8000 FEW020 19/09 Q1015 NOSIG

時間: 17:04 (11:19 UTC)

予報

当レポートは6時間19分前の05:00(UTC)に作成
予報は14日の 06時(UTC)から 15日の 06時(UTC)まで有効
の風 3kt
視程: 4000m
高度1500ftの雲はほとんどない
14日の 07時(UTC)から 14日の 08時(UTC)まで徐々に
南/南西の風 8kt
視程: 7000m
高度2000ftの雲はほとんどない
高度3000ftの雲は散在している
14日の 14時(UTC)から 13日の 15時(UTC)まで徐々に
東/南東の風 3kt
視程: 5000m
高度1500ftの雲はほとんどない
15日の 00時(UTC)から 15日の 02時(UTC)まで徐々に
変向風 2kt
視程: 4000m
高度1000ftの雲はほとんどない
確率 30%
15日の 01時(UTC)から 15日の 02時(UTC)まで
視程: 2000m
15日の 04時(UTC)から 15日の 05時(UTC)まで徐々に
南東の風 3kt
視程: 5000m
高度1500ftの雲はほとんどない

TAF: VNKT 140500Z 1406/1506 10003KT 4000 BR FEW015 BECMG 1407/1408 20008KT 7000 FEW020 SCT030 BECMG 1414/1315 11003KT 5000 BR FEW015 BECMG 1500/1502 VRB02KT 4000 BR FEW010 PROB30 1501/1502 2000 BR BECMG 1504/1505 14003KT 5000 BR FEW015

4,000以上の空港の気象観測と天気予報(METAR報とTAF報)

利用可能な観測所は地図上に黄色い丸と赤い丸で示す。

丸の上にカーソルを重ねると観測所名を参照できる。

次にクリックすると気象観測と天気予報を参照できる。

マップの切り替え:黒色「×」印の緑ボタンをクリックして拡大、「-」印の緑ボタンをクリックして縮小、緑色の三角印をクリックして隣りの地図に切り替え


METAR-TAF: